sensor_id;sensor_type;location;lat;lon;timestamp;P1;durP1;ratioP1;P2;durP2;ratioP2
78346;SDS011;67803;41.330;69.282;2024-02-23T00:02:23;86.50;;;42.53;;
78346;SDS011;67803;41.330;69.282;2024-02-23T00:04:55;94.60;;;41.90;;
78346;SDS011;67803;41.330;69.282;2024-02-23T00:07:26;73.93;;;39.55;;
78346;SDS011;67803;41.330;69.282;2024-02-23T00:09:57;78.43;;;41.42;;
78346;SDS011;67803;41.330;69.282;2024-02-23T00:12:28;81.00;;;37.83;;
78346;SDS011;67803;41.330;69.282;2024-02-23T00:14:59;87.20;;;39.42;;
78346;SDS011;67803;41.330;69.282;2024-02-23T00:17:30;79.25;;;40.97;;
78346;SDS011;67803;41.330;69.282;2024-02-23T00:20:01;84.68;;;41.08;;
78346;SDS011;67803;41.330;69.282;2024-02-23T00:22:32;89.03;;;41.47;;
78346;SDS011;67803;41.330;69.282;2024-02-23T00:25:04;83.93;;;41.08;;
78346;SDS011;67803;41.330;69.282;2024-02-23T00:27:36;75.45;;;39.78;;
78346;SDS011;67803;41.330;69.282;2024-02-23T00:30:07;73.22;;;38.17;;
78346;SDS011;67803;41.330;69.282;2024-02-23T00:32:38;75.13;;;37.67;;
78346;SDS011;67803;41.330;69.282;2024-02-23T00:35:10;82.57;;;39.65;;
78346;SDS011;67803;41.330;69.282;2024-02-23T00:37:41;87.57;;;42.10;;
78346;SDS011;67803;41.330;69.282;2024-02-23T00:40:12;78.40;;;39.72;;
78346;SDS011;67803;41.330;69.282;2024-02-23T00:42:43;78.75;;;38.70;;
78346;SDS011;67803;41.330;69.282;2024-02-23T00:45:14;74.63;;;37.78;;
78346;SDS011;67803;41.330;69.282;2024-02-23T00:47:45;75.35;;;36.75;;
78346;SDS011;67803;41.330;69.282;2024-02-23T00:50:17;73.80;;;37.25;;
78346;SDS011;67803;41.330;69.282;2024-02-23T00:52:48;71.90;;;37.03;;
78346;SDS011;67803;41.330;69.282;2024-02-23T00:55:19;77.28;;;39.65;;
78346;SDS011;67803;41.330;69.282;2024-02-23T00:57:50;80.65;;;38.38;;
78346;SDS011;67803;41.330;69.282;2024-02-23T01:00:21;78.53;;;40.22;;
78346;SDS011;67803;41.330;69.282;2024-02-23T01:02:53;77.78;;;37.97;;
78346;SDS011;67803;41.330;69.282;2024-02-23T01:05:25;74.57;;;36.83;;
78346;SDS011;67803;41.330;69.282;2024-02-23T01:07:56;74.13;;;35.38;;
78346;SDS011;67803;41.330;69.282;2024-02-23T01:10:27;76.93;;;38.80;;
78346;SDS011;67803;41.330;69.282;2024-02-23T01:12:58;68.95;;;35.05;;
78346;SDS011;67803;41.330;69.282;2024-02-23T01:15:29;71.85;;;38.67;;
78346;SDS011;67803;41.330;69.282;2024-02-23T01:18:00;80.35;;;38.70;;
78346;SDS011;67803;41.330;69.282;2024-02-23T01:20:31;72.88;;;35.33;;
78346;SDS011;67803;41.330;69.282;2024-02-23T01:23:02;77.85;;;36.05;;
78346;SDS011;67803;41.330;69.282;2024-02-23T01:25:33;69.28;;;35.78;;
78346;SDS011;67803;41.330;69.282;2024-02-23T01:28:05;71.65;;;35.17;;
78346;SDS011;67803;41.330;69.282;2024-02-23T01:30:38;64.93;;;30.40;;
78346;SDS011;67803;41.330;69.282;2024-02-23T01:33:09;54.58;;;28.45;;
78346;SDS011;67803;41.330;69.282;2024-02-23T01:35:40;54.72;;;26.10;;
78346;SDS011;67803;41.330;69.282;2024-02-23T01:38:11;45.88;;;24.90;;
78346;SDS011;67803;41.330;69.282;2024-02-23T01:40:49;47.60;;;24.20;;
78346;SDS011;67803;41.330;69.282;2024-02-23T01:43:20;42.13;;;23.38;;
78346;SDS011;67803;41.330;69.282;2024-02-23T01:45:51;45.10;;;25.13;;
78346;SDS011;67803;41.330;69.282;2024-02-23T01:48:22;40.13;;;22.40;;
78346;SDS011;67803;41.330;69.282;2024-02-23T01:50:53;42.65;;;22.73;;
78346;SDS011;67803;41.330;69.282;2024-02-23T01:53:25;43.88;;;21.15;;
78346;SDS011;67803;41.330;69.282;2024-02-23T01:55:56;47.72;;;24.95;;
78346;SDS011;67803;41.330;69.282;2024-02-23T01:58:28;44.33;;;23.25;;
78346;SDS011;67803;41.330;69.282;2024-02-23T02:01:00;45.70;;;23.35;;
78346;SDS011;67803;41.330;69.282;2024-02-23T02:03:32;42.53;;;20.85;;
78346;SDS011;67803;41.330;69.282;2024-02-23T02:06:04;38.75;;;20.65;;
78346;SDS011;67803;41.330;69.282;2024-02-23T02:08:35;47.53;;;23.38;;
78346;SDS011;67803;41.330;69.282;2024-02-23T02:11:07;42.92;;;22.20;;
78346;SDS011;67803;41.330;69.282;2024-02-23T02:13:38;41.00;;;21.73;;
78346;SDS011;67803;41.330;69.282;2024-02-23T02:16:09;43.80;;;22.60;;
78346;SDS011;67803;41.330;69.282;2024-02-23T02:18:41;40.13;;;21.58;;
78346;SDS011;67803;41.330;69.282;2024-02-23T02:21:12;40.15;;;20.35;;
78346;SDS011;67803;41.330;69.282;2024-02-23T02:23:43;41.63;;;22.20;;
78346;SDS011;67803;41.330;69.282;2024-02-23T02:26:14;39.78;;;21.63;;
78346;SDS011;67803;41.330;69.282;2024-02-23T02:28:48;41.55;;;20.90;;
78346;SDS011;67803;41.330;69.282;2024-02-23T02:31:19;41.47;;;22.90;;
78346;SDS011;67803;41.330;69.282;2024-02-23T02:33:50;39.05;;;20.05;;
78346;SDS011;67803;41.330;69.282;2024-02-23T02:36:21;38.97;;;21.58;;
78346;SDS011;67803;41.330;69.282;2024-02-23T02:38:52;41.97;;;22.00;;
78346;SDS011;67803;41.330;69.282;2024-02-23T02:41:23;44.70;;;22.00;;
78346;SDS011;67803;41.330;69.282;2024-02-23T02:43:55;38.38;;;21.77;;
78346;SDS011;67803;41.330;69.282;2024-02-23T02:46:26;40.17;;;20.55;;
78346;SDS011;67803;41.330;69.282;2024-02-23T02:48:57;35.92;;;20.38;;
78346;SDS011;67803;41.330;69.282;2024-02-23T02:51:28;37.08;;;20.80;;
78346;SDS011;67803;41.330;69.282;2024-02-23T02:53:59;38.15;;;19.85;;
78346;SDS011;67803;41.330;69.282;2024-02-23T02:56:31;37.85;;;21.40;;
78346;SDS011;67803;41.330;69.282;2024-02-23T02:59:02;35.97;;;20.48;;
78346;SDS011;67803;41.330;69.282;2024-02-23T03:01:33;39.88;;;21.58;;
78346;SDS011;67803;41.330;69.282;2024-02-23T03:04:04;39.17;;;21.95;;
78346;SDS011;67803;41.330;69.282;2024-02-23T03:06:35;36.83;;;22.10;;
78346;SDS011;67803;41.330;69.282;2024-02-23T03:09:06;41.75;;;21.65;;
78346;SDS011;67803;41.330;69.282;2024-02-23T03:11:37;41.15;;;22.42;;
78346;SDS011;67803;41.330;69.282;2024-02-23T03:14:09;38.17;;;21.15;;
78346;SDS011;67803;41.330;69.282;2024-02-23T03:16:40;40.70;;;22.02;;
78346;SDS011;67803;41.330;69.282;2024-02-23T03:19:12;41.58;;;22.65;;
78346;SDS011;67803;41.330;69.282;2024-02-23T03:21:43;39.35;;;21.58;;
78346;SDS011;67803;41.330;69.282;2024-02-23T03:24:14;39.20;;;22.30;;
78346;SDS011;67803;41.330;69.282;2024-02-23T03:26:45;41.53;;;21.90;;
78346;SDS011;67803;41.330;69.282;2024-02-23T03:29:16;39.28;;;20.27;;
78346;SDS011;67803;41.330;69.282;2024-02-23T03:31:47;42.05;;;22.20;;
78346;SDS011;67803;41.330;69.282;2024-02-23T03:34:19;42.35;;;22.02;;
78346;SDS011;67803;41.330;69.282;2024-02-23T03:36:50;49.10;;;25.08;;
78346;SDS011;67803;41.330;69.282;2024-02-23T03:39:21;47.50;;;25.60;;
78346;SDS011;67803;41.330;69.282;2024-02-23T03:41:52;47.05;;;24.77;;
78346;SDS011;67803;41.330;69.282;2024-02-23T03:44:23;52.33;;;27.55;;
78346;SDS011;67803;41.330;69.282;2024-02-23T03:46:55;56.67;;;29.20;;
78346;SDS011;67803;41.330;69.282;2024-02-23T03:49:26;158.40;;;38.42;;
78346;SDS011;67803;41.330;69.282;2024-02-23T03:51:57;107.43;;;34.20;;
78346;SDS011;67803;41.330;69.282;2024-02-23T03:54:28;82.88;;;31.02;;
78346;SDS011;67803;41.330;69.282;2024-02-23T03:56:59;53.53;;;26.48;;
78346;SDS011;67803;41.330;69.282;2024-02-23T03:59:30;108.13;;;32.00;;
78346;SDS011;67803;41.330;69.282;2024-02-23T04:02:01;73.75;;;28.08;;
78346;SDS011;67803;41.330;69.282;2024-02-23T04:04:32;66.40;;;28.00;;
78346;SDS011;67803;41.330;69.282;2024-02-23T04:07:04;60.67;;;25.60;;
78346;SDS011;67803;41.330;69.282;2024-02-23T04:09:35;56.22;;;26.40;;
78346;SDS011;67803;41.330;69.282;2024-02-23T04:12:06;54.38;;;27.27;;
78346;SDS011;67803;41.330;69.282;2024-02-23T04:14:37;81.55;;;26.67;;
78346;SDS011;67803;41.330;69.282;2024-02-23T04:17:11;72.15;;;27.52;;
78346;SDS011;67803;41.330;69.282;2024-02-23T04:19:42;50.75;;;28.98;;
78346;SDS011;67803;41.330;69.282;2024-02-23T04:24:44;44.95;;;25.02;;
78346;SDS011;67803;41.330;69.282;2024-02-23T04:27:15;43.03;;;21.25;;
78346;SDS011;67803;41.330;69.282;2024-02-23T04:29:45;44.92;;;20.27;;
78346;SDS011;67803;41.330;69.282;2024-02-23T04:32:16;35.35;;;18.40;;
78346;SDS011;67803;41.330;69.282;2024-02-23T04:34:46;37.88;;;19.38;;
78346;SDS011;67803;41.330;69.282;2024-02-23T04:37:17;40.95;;;20.10;;
78346;SDS011;67803;41.330;69.282;2024-02-23T04:39:47;35.92;;;18.08;;
78346;SDS011;67803;41.330;69.282;2024-02-23T04:42:18;36.97;;;19.77;;
78346;SDS011;67803;41.330;69.282;2024-02-23T04:44:48;33.25;;;19.10;;
78346;SDS011;67803;41.330;69.282;2024-02-23T04:47:19;31.48;;;16.70;;
78346;SDS011;67803;41.330;69.282;2024-02-23T04:49:50;37.28;;;19.05;;
78346;SDS011;67803;41.330;69.282;2024-02-23T04:52:20;35.33;;;19.65;;
78346;SDS011;67803;41.330;69.282;2024-02-23T04:54:51;30.40;;;17.88;;
78346;SDS011;67803;41.330;69.282;2024-02-23T04:57:21;44.53;;;20.42;;
78346;SDS011;67803;41.330;69.282;2024-02-23T04:59:53;35.50;;;18.88;;
78346;SDS011;67803;41.330;69.282;2024-02-23T05:02:23;37.60;;;20.15;;
78346;SDS011;67803;41.330;69.282;2024-02-23T05:04:54;36.80;;;20.23;;
78346;SDS011;67803;41.330;69.282;2024-02-23T05:07:24;42.65;;;21.17;;
78346;SDS011;67803;41.330;69.282;2024-02-23T05:09:55;38.83;;;21.40;;
78346;SDS011;67803;41.330;69.282;2024-02-23T05:12:25;39.65;;;21.70;;
78346;SDS011;67803;41.330;69.282;2024-02-23T05:14:56;37.40;;;21.73;;
78346;SDS011;67803;41.330;69.282;2024-02-23T05:17:26;41.33;;;23.00;;
78346;SDS011;67803;41.330;69.282;2024-02-23T05:19:57;38.30;;;21.65;;
78346;SDS011;67803;41.330;69.282;2024-02-23T05:22:27;46.22;;;23.48;;
78346;SDS011;67803;41.330;69.282;2024-02-23T05:24:58;40.15;;;22.20;;
78346;SDS011;67803;41.330;69.282;2024-02-23T05:27:28;43.90;;;22.67;;
78346;SDS011;67803;41.330;69.282;2024-02-23T05:29:59;43.90;;;21.33;;
78346;SDS011;67803;41.330;69.282;2024-02-23T05:32:30;45.00;;;21.60;;
78346;SDS011;67803;41.330;69.282;2024-02-23T05:35:00;44.17;;;23.58;;
78346;SDS011;67803;41.330;69.282;2024-02-23T05:37:31;40.90;;;21.73;;
78346;SDS011;67803;41.330;69.282;2024-02-23T05:40:02;44.33;;;22.30;;
78346;SDS011;67803;41.330;69.282;2024-02-23T05:42:36;41.70;;;21.73;;
78346;SDS011;67803;41.330;69.282;2024-02-23T05:45:07;41.13;;;22.08;;
78346;SDS011;67803;41.330;69.282;2024-02-23T05:47:41;47.42;;;23.67;;
78346;SDS011;67803;41.330;69.282;2024-02-23T05:50:11;42.13;;;22.70;;
78346;SDS011;67803;41.330;69.282;2024-02-23T05:52:42;42.28;;;21.70;;
78346;SDS011;67803;41.330;69.282;2024-02-23T05:55:12;37.38;;;21.50;;
78346;SDS011;67803;41.330;69.282;2024-02-23T05:57:43;42.13;;;21.48;;
78346;SDS011;67803;41.330;69.282;2024-02-23T06:00:14;44.53;;;19.90;;
78346;SDS011;67803;41.330;69.282;2024-02-23T06:02:45;42.85;;;21.63;;
78346;SDS011;67803;41.330;69.282;2024-02-23T06:05:16;35.72;;;19.38;;
78346;SDS011;67803;41.330;69.282;2024-02-23T06:07:46;35.88;;;19.15;;
78346;SDS011;67803;41.330;69.282;2024-02-23T06:10:17;38.92;;;20.95;;
78346;SDS011;67803;41.330;69.282;2024-02-23T06:12:47;35.28;;;19.77;;
78346;SDS011;67803;41.330;69.282;2024-02-23T06:15:18;42.50;;;20.35;;
78346;SDS011;67803;41.330;69.282;2024-02-23T06:17:48;38.28;;;19.80;;
78346;SDS011;67803;41.330;69.282;2024-02-23T06:20:19;39.15;;;19.83;;
78346;SDS011;67803;41.330;69.282;2024-02-23T06:22:50;43.72;;;21.08;;
78346;SDS011;67803;41.330;69.282;2024-02-23T06:25:20;41.55;;;21.30;;
78346;SDS011;67803;41.330;69.282;2024-02-23T06:27:51;43.10;;;21.63;;
78346;SDS011;67803;41.330;69.282;2024-02-23T06:30:21;37.25;;;20.95;;
78346;SDS011;67803;41.330;69.282;2024-02-23T06:32:51;37.88;;;19.55;;
78346;SDS011;67803;41.330;69.282;2024-02-23T06:35:22;37.42;;;20.05;;
78346;SDS011;67803;41.330;69.282;2024-02-23T06:37:52;46.55;;;22.40;;
78346;SDS011;67803;41.330;69.282;2024-02-23T06:40:23;44.10;;;20.35;;
78346;SDS011;67803;41.330;69.282;2024-02-23T06:42:54;36.70;;;20.65;;
78346;SDS011;67803;41.330;69.282;2024-02-23T06:45:24;34.33;;;19.88;;
78346;SDS011;67803;41.330;69.282;2024-02-23T06:47:56;37.50;;;17.52;;
78346;SDS011;67803;41.330;69.282;2024-02-23T06:50:26;42.35;;;22.75;;
78346;SDS011;67803;41.330;69.282;2024-02-23T06:52:57;46.63;;;23.58;;
78346;SDS011;67803;41.330;69.282;2024-02-23T06:55:27;51.00;;;24.33;;
78346;SDS011;67803;41.330;69.282;2024-02-23T06:57:58;53.67;;;23.63;;
78346;SDS011;67803;41.330;69.282;2024-02-23T07:00:29;48.90;;;23.88;;
78346;SDS011;67803;41.330;69.282;2024-02-23T07:02:59;50.42;;;23.98;;
78346;SDS011;67803;41.330;69.282;2024-02-23T07:05:33;54.92;;;24.02;;
78346;SDS011;67803;41.330;69.282;2024-02-23T07:08:05;51.05;;;24.85;;
78346;SDS011;67803;41.330;69.282;2024-02-23T07:10:36;40.20;;;18.48;;
78346;SDS011;67803;41.330;69.282;2024-02-23T07:13:06;47.83;;;22.40;;
78346;SDS011;67803;41.330;69.282;2024-02-23T07:15:37;48.83;;;21.92;;
78346;SDS011;67803;41.330;69.282;2024-02-23T07:18:07;44.65;;;22.70;;
78346;SDS011;67803;41.330;69.282;2024-02-23T07:20:40;48.97;;;21.73;;
78346;SDS011;67803;41.330;69.282;2024-02-23T07:23:11;45.33;;;21.17;;
78346;SDS011;67803;41.330;69.282;2024-02-23T07:25:41;42.28;;;20.65;;
78346;SDS011;67803;41.330;69.282;2024-02-23T07:28:12;40.75;;;19.15;;
78346;SDS011;67803;41.330;69.282;2024-02-23T07:30:42;43.25;;;20.30;;
78346;SDS011;67803;41.330;69.282;2024-02-23T07:33:13;38.92;;;18.67;;
78346;SDS011;67803;41.330;69.282;2024-02-23T07:35:43;42.10;;;17.95;;
78346;SDS011;67803;41.330;69.282;2024-02-23T07:38:14;40.22;;;16.65;;
78346;SDS011;67803;41.330;69.282;2024-02-23T07:40:44;39.92;;;16.48;;
78346;SDS011;67803;41.330;69.282;2024-02-23T07:43:15;33.65;;;15.63;;
78346;SDS011;67803;41.330;69.282;2024-02-23T07:45:46;35.97;;;15.73;;
78346;SDS011;67803;41.330;69.282;2024-02-23T07:48:16;41.50;;;16.50;;
78346;SDS011;67803;41.330;69.282;2024-02-23T07:50:47;35.03;;;14.95;;
78346;SDS011;67803;41.330;69.282;2024-02-23T07:53:17;34.50;;;14.02;;
78346;SDS011;67803;41.330;69.282;2024-02-23T07:55:47;30.38;;;13.60;;
78346;SDS011;67803;41.330;69.282;2024-02-23T07:58:18;31.45;;;12.82;;
78346;SDS011;67803;41.330;69.282;2024-02-23T08:00:49;27.65;;;13.38;;
78346;SDS011;67803;41.330;69.282;2024-02-23T08:03:19;32.40;;;13.60;;
78346;SDS011;67803;41.330;69.282;2024-02-23T08:05:50;28.25;;;12.43;;
78346;SDS011;67803;41.330;69.282;2024-02-23T08:08:20;21.83;;;10.43;;
78346;SDS011;67803;41.330;69.282;2024-02-23T08:10:53;20.73;;;10.07;;
78346;SDS011;67803;41.330;69.282;2024-02-23T08:13:24;28.15;;;11.15;;
78346;SDS011;67803;41.330;69.282;2024-02-23T08:15:55;22.58;;;8.95;;
78346;SDS011;67803;41.330;69.282;2024-02-23T08:18:25;30.48;;;11.32;;
78346;SDS011;67803;41.330;69.282;2024-02-23T08:20:57;22.05;;;9.07;;
78346;SDS011;67803;41.330;69.282;2024-02-23T08:23:27;19.70;;;9.05;;
78346;SDS011;67803;41.330;69.282;2024-02-23T08:25:58;19.45;;;8.77;;
78346;SDS011;67803;41.330;69.282;2024-02-23T08:28:28;18.40;;;9.23;;
78346;SDS011;67803;41.330;69.282;2024-02-23T08:30:59;23.85;;;9.13;;
78346;SDS011;67803;41.330;69.282;2024-02-23T08:33:29;23.92;;;9.60;;
78346;SDS011;67803;41.330;69.282;2024-02-23T08:36:00;22.10;;;9.60;;
78346;SDS011;67803;41.330;69.282;2024-02-23T08:38:31;17.58;;;8.52;;
78346;SDS011;67803;41.330;69.282;2024-02-23T08:41:02;17.27;;;8.60;;
78346;SDS011;67803;41.330;69.282;2024-02-23T08:43:32;22.08;;;8.07;;
78346;SDS011;67803;41.330;69.282;2024-02-23T08:46:03;22.17;;;7.57;;
78346;SDS011;67803;41.330;69.282;2024-02-23T08:48:33;15.20;;;7.45;;
78346;SDS011;67803;41.330;69.282;2024-02-23T08:51:04;16.85;;;7.57;;
78346;SDS011;67803;41.330;69.282;2024-02-23T08:53:35;16.75;;;7.43;;
78346;SDS011;67803;41.330;69.282;2024-02-23T08:56:08;15.82;;;7.38;;
78346;SDS011;67803;41.330;69.282;2024-02-23T08:58:39;16.55;;;7.07;;
78346;SDS011;67803;41.330;69.282;2024-02-23T09:01:10;13.68;;;7.20;;
78346;SDS011;67803;41.330;69.282;2024-02-23T09:03:40;13.15;;;6.53;;
78346;SDS011;67803;41.330;69.282;2024-02-23T09:06:11;17.67;;;6.57;;
78346;SDS011;67803;41.330;69.282;2024-02-23T09:08:42;11.60;;;6.47;;
78346;SDS011;67803;41.330;69.282;2024-02-23T09:11:12;11.35;;;5.85;;
78346;SDS011;67803;41.330;69.282;2024-02-23T09:13:44;14.07;;;6.25;;
78346;SDS011;67803;41.330;69.282;2024-02-23T09:16:14;11.77;;;6.43;;
78346;SDS011;67803;41.330;69.282;2024-02-23T09:18:45;15.38;;;6.28;;
78346;SDS011;67803;41.330;69.282;2024-02-23T09:21:15;16.67;;;6.95;;
78346;SDS011;67803;41.330;69.282;2024-02-23T09:23:46;11.15;;;6.13;;
78346;SDS011;67803;41.330;69.282;2024-02-23T09:26:17;12.23;;;6.10;;
78346;SDS011;67803;41.330;69.282;2024-02-23T09:28:48;10.52;;;5.00;;
78346;SDS011;67803;41.330;69.282;2024-02-23T09:31:18;13.20;;;5.82;;
78346;SDS011;67803;41.330;69.282;2024-02-23T09:33:49;15.50;;;5.90;;
78346;SDS011;67803;41.330;69.282;2024-02-23T09:36:21;14.90;;;5.47;;
78346;SDS011;67803;41.330;69.282;2024-02-23T09:38:52;12.63;;;5.68;;
78346;SDS011;67803;41.330;69.282;2024-02-23T09:41:23;13.60;;;5.63;;
78346;SDS011;67803;41.330;69.282;2024-02-23T09:43:55;14.10;;;6.55;;
78346;SDS011;67803;41.330;69.282;2024-02-23T09:46:28;14.10;;;5.57;;
78346;SDS011;67803;41.330;69.282;2024-02-23T09:48:59;10.80;;;5.90;;
78346;SDS011;67803;41.330;69.282;2024-02-23T09:51:30;11.55;;;5.47;;
78346;SDS011;67803;41.330;69.282;2024-02-23T09:54:02;12.85;;;5.38;;
78346;SDS011;67803;41.330;69.282;2024-02-23T09:56:33;9.30;;;5.13;;
78346;SDS011;67803;41.330;69.282;2024-02-23T09:59:03;12.25;;;6.22;;
78346;SDS011;67803;41.330;69.282;2024-02-23T10:01:34;16.63;;;5.68;;
78346;SDS011;67803;41.330;69.282;2024-02-23T10:04:06;12.73;;;6.18;;
78346;SDS011;67803;41.330;69.282;2024-02-23T10:06:38;13.15;;;5.63;;
78346;SDS011;67803;41.330;69.282;2024-02-23T10:09:09;13.05;;;6.50;;
78346;SDS011;67803;41.330;69.282;2024-02-23T10:11:42;11.18;;;5.97;;
78346;SDS011;67803;41.330;69.282;2024-02-23T10:14:12;10.88;;;5.97;;
78346;SDS011;67803;41.330;69.282;2024-02-23T10:16:43;10.82;;;5.30;;
78346;SDS011;67803;41.330;69.282;2024-02-23T10:19:13;14.38;;;6.57;;
78346;SDS011;67803;41.330;69.282;2024-02-23T10:21:44;16.48;;;7.15;;
78346;SDS011;67803;41.330;69.282;2024-02-23T10:24:15;16.60;;;7.32;;
78346;SDS011;67803;41.330;69.282;2024-02-23T10:26:49;16.30;;;8.43;;
78346;SDS011;67803;41.330;69.282;2024-02-23T10:29:20;13.55;;;6.70;;
78346;SDS011;67803;41.330;69.282;2024-02-23T10:31:51;16.33;;;7.22;;
78346;SDS011;67803;41.330;69.282;2024-02-23T10:34:22;15.15;;;6.93;;
78346;SDS011;67803;41.330;69.282;2024-02-23T10:36:54;18.42;;;7.47;;
78346;SDS011;67803;41.330;69.282;2024-02-23T10:39:26;17.15;;;7.82;;
78346;SDS011;67803;41.330;69.282;2024-02-23T10:41:59;16.52;;;8.10;;
78346;SDS011;67803;41.330;69.282;2024-02-23T10:44:30;19.08;;;8.13;;
78346;SDS011;67803;41.330;69.282;2024-02-23T10:47:00;26.02;;;7.95;;
78346;SDS011;67803;41.330;69.282;2024-02-23T10:49:31;18.90;;;7.82;;
78346;SDS011;67803;41.330;69.282;2024-02-23T10:52:03;20.92;;;7.75;;
78346;SDS011;67803;41.330;69.282;2024-02-23T10:54:34;16.25;;;7.32;;
78346;SDS011;67803;41.330;69.282;2024-02-23T10:57:06;19.98;;;7.05;;
78346;SDS011;67803;41.330;69.282;2024-02-23T10:59:37;15.20;;;6.80;;
78346;SDS011;67803;41.330;69.282;2024-02-23T11:02:07;15.68;;;8.00;;
78346;SDS011;67803;41.330;69.282;2024-02-23T11:04:38;20.98;;;8.27;;
78346;SDS011;67803;41.330;69.282;2024-02-23T11:07:15;17.63;;;7.13;;
78346;SDS011;67803;41.330;69.282;2024-02-23T11:09:49;18.15;;;7.57;;
78346;SDS011;67803;41.330;69.282;2024-02-23T11:12:23;14.85;;;7.05;;
78346;SDS011;67803;41.330;69.282;2024-02-23T11:14:57;17.75;;;8.88;;
78346;SDS011;67803;41.330;69.282;2024-02-23T11:17:29;18.67;;;8.32;;
78346;SDS011;67803;41.330;69.282;2024-02-23T11:20:02;19.08;;;8.77;;
78346;SDS011;67803;41.330;69.282;2024-02-23T11:22:34;18.55;;;8.73;;
78346;SDS011;67803;41.330;69.282;2024-02-23T11:25:08;14.88;;;8.10;;
78346;SDS011;67803;41.330;69.282;2024-02-23T11:27:40;18.25;;;6.63;;
78346;SDS011;67803;41.330;69.282;2024-02-23T11:30:13;16.33;;;7.07;;
78346;SDS011;67803;41.330;69.282;2024-02-23T11:32:47;15.43;;;7.10;;
78346;SDS011;67803;41.330;69.282;2024-02-23T11:35:18;16.35;;;7.72;;
78346;SDS011;67803;41.330;69.282;2024-02-23T11:37:52;12.60;;;6.80;;
78346;SDS011;67803;41.330;69.282;2024-02-23T11:40:31;16.58;;;7.88;;
78346;SDS011;67803;41.330;69.282;2024-02-23T11:43:02;14.68;;;8.10;;
78346;SDS011;67803;41.330;69.282;2024-02-23T11:45:34;14.25;;;7.43;;
78346;SDS011;67803;41.330;69.282;2024-02-23T11:48:05;15.30;;;7.28;;
78346;SDS011;67803;41.330;69.282;2024-02-23T11:50:37;15.45;;;8.23;;
78346;SDS011;67803;41.330;69.282;2024-02-23T11:53:08;11.95;;;6.68;;
78346;SDS011;67803;41.330;69.282;2024-02-23T11:55:39;12.38;;;7.00;;
78346;SDS011;67803;41.330;69.282;2024-02-23T11:58:09;15.32;;;7.13;;
78346;SDS011;67803;41.330;69.282;2024-02-23T12:00:40;14.43;;;8.07;;
78346;SDS011;67803;41.330;69.282;2024-02-23T12:03:10;13.45;;;8.43;;
78346;SDS011;67803;41.330;69.282;2024-02-23T12:05:41;13.90;;;8.15;;
78346;SDS011;67803;41.330;69.282;2024-02-23T12:08:12;16.98;;;9.40;;
78346;SDS011;67803;41.330;69.282;2024-02-23T12:10:43;15.73;;;9.25;;
78346;SDS011;67803;41.330;69.282;2024-02-23T12:13:14;16.05;;;9.85;;
78346;SDS011;67803;41.330;69.282;2024-02-23T12:15:44;14.82;;;8.95;;
78346;SDS011;67803;41.330;69.282;2024-02-23T12:18:15;14.18;;;9.32;;
78346;SDS011;67803;41.330;69.282;2024-02-23T12:20:49;15.45;;;9.18;;
78346;SDS011;67803;41.330;69.282;2024-02-23T12:23:19;19.30;;;10.45;;
78346;SDS011;67803;41.330;69.282;2024-02-23T12:25:56;30.88;;;16.35;;
78346;SDS011;67803;41.330;69.282;2024-02-23T12:28:27;32.85;;;17.70;;
78346;SDS011;67803;41.330;69.282;2024-02-23T12:31:01;42.15;;;19.38;;
78346;SDS011;67803;41.330;69.282;2024-02-23T12:33:33;35.30;;;18.05;;
78346;SDS011;67803;41.330;69.282;2024-02-23T12:36:04;39.40;;;19.67;;
78346;SDS011;67803;41.330;69.282;2024-02-23T12:38:37;41.13;;;19.85;;
78346;SDS011;67803;41.330;69.282;2024-02-23T12:41:07;40.75;;;20.13;;
78346;SDS011;67803;41.330;69.282;2024-02-23T12:43:38;40.53;;;19.83;;
78346;SDS011;67803;41.330;69.282;2024-02-23T12:46:08;36.30;;;18.80;;
78346;SDS011;67803;41.330;69.282;2024-02-23T12:48:39;36.42;;;18.35;;
78346;SDS011;67803;41.330;69.282;2024-02-23T12:51:09;34.70;;;19.00;;
78346;SDS011;67803;41.330;69.282;2024-02-23T12:53:40;39.20;;;19.77;;
78346;SDS011;67803;41.330;69.282;2024-02-23T12:56:12;42.72;;;21.00;;
78346;SDS011;67803;41.330;69.282;2024-02-23T12:58:43;35.92;;;19.23;;
78346;SDS011;67803;41.330;69.282;2024-02-23T13:01:14;38.08;;;19.80;;
78346;SDS011;67803;41.330;69.282;2024-02-23T13:03:45;36.80;;;18.35;;
78346;SDS011;67803;41.330;69.282;2024-02-23T13:06:16;38.33;;;19.75;;
78346;SDS011;67803;41.330;69.282;2024-02-23T13:08:46;36.95;;;18.73;;
78346;SDS011;67803;41.330;69.282;2024-02-23T13:11:17;34.00;;;16.92;;
78346;SDS011;67803;41.330;69.282;2024-02-23T13:13:47;37.40;;;17.55;;
78346;SDS011;67803;41.330;69.282;2024-02-23T13:16:18;37.72;;;17.60;;
78346;SDS011;67803;41.330;69.282;2024-02-23T13:18:49;33.97;;;17.65;;
78346;SDS011;67803;41.330;69.282;2024-02-23T13:21:20;34.97;;;17.48;;
78346;SDS011;67803;41.330;69.282;2024-02-23T13:23:50;32.33;;;18.02;;
78346;SDS011;67803;41.330;69.282;2024-02-23T13:26:21;33.45;;;16.75;;
78346;SDS011;67803;41.330;69.282;2024-02-23T13:28:51;32.63;;;17.17;;
78346;SDS011;67803;41.330;69.282;2024-02-23T13:31:22;35.83;;;18.75;;
78346;SDS011;67803;41.330;69.282;2024-02-23T13:33:52;34.05;;;18.15;;
78346;SDS011;67803;41.330;69.282;2024-02-23T13:36:23;34.67;;;16.85;;
78346;SDS011;67803;41.330;69.282;2024-02-23T13:38:53;37.78;;;18.95;;
78346;SDS011;67803;41.330;69.282;2024-02-23T13:41:24;34.50;;;17.30;;
78346;SDS011;67803;41.330;69.282;2024-02-23T13:43:54;36.70;;;17.77;;
78346;SDS011;67803;41.330;69.282;2024-02-23T13:46:25;35.47;;;18.50;;
78346;SDS011;67803;41.330;69.282;2024-02-23T13:49:02;33.35;;;17.83;;
78346;SDS011;67803;41.330;69.282;2024-02-23T13:51:34;37.53;;;18.25;;
78346;SDS011;67803;41.330;69.282;2024-02-23T13:54:05;35.97;;;16.65;;
78346;SDS011;67803;41.330;69.282;2024-02-23T13:56:35;36.10;;;18.23;;
78346;SDS011;67803;41.330;69.282;2024-02-23T13:59:06;33.53;;;17.13;;
78346;SDS011;67803;41.330;69.282;2024-02-23T14:01:36;34.17;;;18.40;;
78346;SDS011;67803;41.330;69.282;2024-02-23T14:04:07;36.70;;;18.15;;
78346;SDS011;67803;41.330;69.282;2024-02-23T14:06:38;37.40;;;17.67;;
78346;SDS011;67803;41.330;69.282;2024-02-23T14:09:09;33.08;;;17.75;;
78346;SDS011;67803;41.330;69.282;2024-02-23T14:11:39;35.92;;;17.10;;
78346;SDS011;67803;41.330;69.282;2024-02-23T14:14:10;35.95;;;19.08;;
78346;SDS011;67803;41.330;69.282;2024-02-23T14:16:40;41.03;;;19.10;;
78346;SDS011;67803;41.330;69.282;2024-02-23T14:19:11;40.28;;;18.33;;
78346;SDS011;67803;41.330;69.282;2024-02-23T14:21:41;41.63;;;20.27;;
78346;SDS011;67803;41.330;69.282;2024-02-23T14:24:12;36.20;;;18.77;;
78346;SDS011;67803;41.330;69.282;2024-02-23T14:26:43;40.97;;;19.85;;
78346;SDS011;67803;41.330;69.282;2024-02-23T14:29:13;40.92;;;20.65;;
78346;SDS011;67803;41.330;69.282;2024-02-23T14:31:44;41.60;;;21.45;;
78346;SDS011;67803;41.330;69.282;2024-02-23T14:34:14;40.95;;;20.75;;
78346;SDS011;67803;41.330;69.282;2024-02-23T14:36:45;39.80;;;19.92;;
78346;SDS011;67803;41.330;69.282;2024-02-23T14:39:15;41.20;;;20.98;;